Rockhill Furnace, Pennsylvania
Current Conditions -  °F | °C
As of 2:53 PM on Thursday 27 Nov 2014 (Local Time) from KAOO Reporting Station
Overcast Overcast  
Wind Chill: 25°   Ceiling: 3500
Heat Index: 34°   Visibility: 10mi
Dew Point: 26°   Wind: 12mph
Humidity: 73%   Direction: 300°WNW
Pressure: 30.01"   Gusts: NA
Location:  40.24°N, 77.9°W
Report Text: KAOO 271953Z AUTO 30010KT 10SM FEW024 BKN035 OVC065 01/M03 A3001 RMK AO2 SLP178 T00111033
Loading
Personal Weather Stations






























Interactive Weather Map New forecast layout! Learn more

10-Day Weather Forecast

Advertisements
Track Severe Weather on mobile